sensor_id;sensor_type;location;lat;lon;timestamp;temperature;humidity
13686;DHT22;6915;48.296;8.874;2023-04-07T00:00:10;5.60;99.90
13686;DHT22;6915;48.296;8.874;2023-04-07T00:02:39;5.60;99.90
13686;DHT22;6915;48.296;8.874;2023-04-07T00:05:10;5.70;99.90
13686;DHT22;6915;48.296;8.874;2023-04-07T00:07:39;5.60;99.90
13686;DHT22;6915;48.296;8.874;2023-04-07T00:10:07;5.60;99.90
13686;DHT22;6915;48.296;8.874;2023-04-07T00:12:36;5.70;99.90
13686;DHT22;6915;48.296;8.874;2023-04-07T00:15:03;5.60;99.90
13686;DHT22;6915;48.296;8.874;2023-04-07T00:17:32;5.60;99.90
13686;DHT22;6915;48.296;8.874;2023-04-07T00:20:00;5.70;99.90
13686;DHT22;6915;48.296;8.874;2023-04-07T00:22:32;5.70;99.90
13686;DHT22;6915;48.296;8.874;2023-04-07T00:25:00;5.70;99.90
13686;DHT22;6915;48.296;8.874;2023-04-07T00:27:29;5.80;99.90
13686;DHT22;6915;48.296;8.874;2023-04-07T00:29:58;5.70;99.90
13686;DHT22;6915;48.296;8.874;2023-04-07T00:32:27;5.80;99.90
13686;DHT22;6915;48.296;8.874;2023-04-07T00:34:55;5.60;99.90
13686;DHT22;6915;48.296;8.874;2023-04-07T00:37:24;5.60;99.90
13686;DHT22;6915;48.296;8.874;2023-04-07T00:39:54;5.60;99.90
13686;DHT22;6915;48.296;8.874;2023-04-07T00:42:23;5.60;99.90
13686;DHT22;6915;48.296;8.874;2023-04-07T00:44:52;5.70;99.90
13686;DHT22;6915;48.296;8.874;2023-04-07T00:47:21;5.60;99.90
13686;DHT22;6915;48.296;8.874;2023-04-07T00:49:49;5.60;99.90
13686;DHT22;6915;48.296;8.874;2023-04-07T00:52:18;5.60;99.90
13686;DHT22;6915;48.296;8.874;2023-04-07T00:54:55;5.60;99.90
13686;DHT22;6915;48.296;8.874;2023-04-07T00:57:24;5.60;99.90
13686;DHT22;6915;48.296;8.874;2023-04-07T00:59:53;5.60;99.90
13686;DHT22;6915;48.296;8.874;2023-04-07T01:02:25;5.60;99.90
13686;DHT22;6915;48.296;8.874;2023-04-07T01:05:04;5.60;99.90
13686;DHT22;6915;48.296;8.874;2023-04-07T01:10:26;5.60;99.90
13686;DHT22;6915;48.296;8.874;2023-04-07T01:13:00;5.60;99.90
13686;DHT22;6915;48.296;8.874;2023-04-07T01:15:32;5.80;99.90
13686;DHT22;6915;48.296;8.874;2023-04-07T01:18:09;5.60;99.90
13686;DHT22;6915;48.296;8.874;2023-04-07T01:20:41;5.60;99.90
13686;DHT22;6915;48.296;8.874;2023-04-07T01:23:24;5.60;99.90
13686;DHT22;6915;48.296;8.874;2023-04-07T01:26:12;5.50;99.90
13686;DHT22;6915;48.296;8.874;2023-04-07T01:31:41;5.60;99.90
13686;DHT22;6915;48.296;8.874;2023-04-07T01:34:14;5.50;99.90
13686;DHT22;6915;48.296;8.874;2023-04-07T01:36:48;5.50;99.90
13686;DHT22;6915;48.296;8.874;2023-04-07T01:39:29;5.50;99.90
13686;DHT22;6915;48.296;8.874;2023-04-07T01:41:59;5.60;99.90
13686;DHT22;6915;48.296;8.874;2023-04-07T01:44:30;5.60;99.90
13686;DHT22;6915;48.296;8.874;2023-04-07T01:47:01;5.60;99.90
13686;DHT22;6915;48.296;8.874;2023-04-07T01:49:33;5.60;99.90
13686;DHT22;6915;48.296;8.874;2023-04-07T01:52:03;5.70;99.90
13686;DHT22;6915;48.296;8.874;2023-04-07T01:54:32;5.80;99.90
13686;DHT22;6915;48.296;8.874;2023-04-07T01:57:02;5.60;99.90
13686;DHT22;6915;48.296;8.874;2023-04-07T01:59:30;5.60;99.90
13686;DHT22;6915;48.296;8.874;2023-04-07T02:02:01;5.60;99.90
13686;DHT22;6915;48.296;8.874;2023-04-07T02:04:34;5.70;99.90
13686;DHT22;6915;48.296;8.874;2023-04-07T02:07:13;5.70;99.90
13686;DHT22;6915;48.296;8.874;2023-04-07T02:09:43;5.70;99.90
13686;DHT22;6915;48.296;8.874;2023-04-07T02:12:16;5.60;99.90
13686;DHT22;6915;48.296;8.874;2023-04-07T02:14:48;5.60;99.90
13686;DHT22;6915;48.296;8.874;2023-04-07T02:17:19;5.70;99.90
13686;DHT22;6915;48.296;8.874;2023-04-07T02:19:48;5.70;99.90
13686;DHT22;6915;48.296;8.874;2023-04-07T02:22:19;5.70;99.90
13686;DHT22;6915;48.296;8.874;2023-04-07T02:24:51;5.70;99.90
13686;DHT22;6915;48.296;8.874;2023-04-07T02:27:19;5.70;99.90
13686;DHT22;6915;48.296;8.874;2023-04-07T02:29:48;5.80;99.90
13686;DHT22;6915;48.296;8.874;2023-04-07T02:32:16;5.60;99.90
13686;DHT22;6915;48.296;8.874;2023-04-07T02:34:46;5.60;99.90
13686;DHT22;6915;48.296;8.874;2023-04-07T02:37:14;5.80;99.90
13686;DHT22;6915;48.296;8.874;2023-04-07T02:39:43;5.70;99.90
13686;DHT22;6915;48.296;8.874;2023-04-07T02:42:12;5.70;99.90
13686;DHT22;6915;48.296;8.874;2023-04-07T02:44:42;5.80;99.90
13686;DHT22;6915;48.296;8.874;2023-04-07T02:47:12;5.60;99.90
13686;DHT22;6915;48.296;8.874;2023-04-07T02:49:46;5.70;99.90
13686;DHT22;6915;48.296;8.874;2023-04-07T02:52:14;5.70;99.90
13686;DHT22;6915;48.296;8.874;2023-04-07T02:54:43;5.70;99.90
13686;DHT22;6915;48.296;8.874;2023-04-07T02:57:12;5.70;99.90
13686;DHT22;6915;48.296;8.874;2023-04-07T02:59:41;5.60;99.90
13686;DHT22;6915;48.296;8.874;2023-04-07T03:02:09;5.60;99.90
13686;DHT22;6915;48.296;8.874;2023-04-07T03:04:38;5.60;99.90
13686;DHT22;6915;48.296;8.874;2023-04-07T03:07:09;5.60;99.90
13686;DHT22;6915;48.296;8.874;2023-04-07T03:09:43;5.60;99.90
13686;DHT22;6915;48.296;8.874;2023-04-07T03:12:12;5.60;99.90
13686;DHT22;6915;48.296;8.874;2023-04-07T03:14:41;5.60;99.90
13686;DHT22;6915;48.296;8.874;2023-04-07T03:17:09;5.60;99.90
13686;DHT22;6915;48.296;8.874;2023-04-07T03:19:38;5.40;99.90
13686;DHT22;6915;48.296;8.874;2023-04-07T03:22:12;5.60;99.90
13686;DHT22;6915;48.296;8.874;2023-04-07T03:24:41;5.50;99.90
13686;DHT22;6915;48.296;8.874;2023-04-07T03:27:10;5.40;99.90
13686;DHT22;6915;48.296;8.874;2023-04-07T03:29:38;5.40;99.90
13686;DHT22;6915;48.296;8.874;2023-04-07T03:32:10;5.20;99.90
13686;DHT22;6915;48.296;8.874;2023-04-07T03:34:39;5.30;99.90
13686;DHT22;6915;48.296;8.874;2023-04-07T03:37:09;5.30;99.90
13686;DHT22;6915;48.296;8.874;2023-04-07T03:39:37;5.30;99.90
13686;DHT22;6915;48.296;8.874;2023-04-07T03:42:07;5.30;99.90
13686;DHT22;6915;48.296;8.874;2023-04-07T03:44:36;5.30;99.90
13686;DHT22;6915;48.296;8.874;2023-04-07T03:47:04;5.40;99.90
13686;DHT22;6915;48.296;8.874;2023-04-07T03:49:33;5.30;99.90
13686;DHT22;6915;48.296;8.874;2023-04-07T03:52:03;5.20;99.90
13686;DHT22;6915;48.296;8.874;2023-04-07T03:54:33;5.10;99.90
13686;DHT22;6915;48.296;8.874;2023-04-07T03:57:08;5.10;99.90
13686;DHT22;6915;48.296;8.874;2023-04-07T03:59:38;5.10;99.90
13686;DHT22;6915;48.296;8.874;2023-04-07T04:02:07;5.00;99.90
13686;DHT22;6915;48.296;8.874;2023-04-07T04:04:35;5.10;99.90
13686;DHT22;6915;48.296;8.874;2023-04-07T04:07:06;5.00;99.90
13686;DHT22;6915;48.296;8.874;2023-04-07T04:09:37;5.10;99.90
13686;DHT22;6915;48.296;8.874;2023-04-07T04:12:13;5.00;99.90
13686;DHT22;6915;48.296;8.874;2023-04-07T04:14:44;4.90;99.90
13686;DHT22;6915;48.296;8.874;2023-04-07T04:17:13;5.00;99.90
13686;DHT22;6915;48.296;8.874;2023-04-07T04:19:45;4.90;99.90
13686;DHT22;6915;48.296;8.874;2023-04-07T04:22:18;4.80;99.90
13686;DHT22;6915;48.296;8.874;2023-04-07T04:24:49;4.90;99.90
13686;DHT22;6915;48.296;8.874;2023-04-07T04:27:18;4.90;99.90
13686;DHT22;6915;48.296;8.874;2023-04-07T04:29:47;4.80;99.90
13686;DHT22;6915;48.296;8.874;2023-04-07T04:32:17;4.80;99.90
13686;DHT22;6915;48.296;8.874;2023-04-07T04:42:35;4.70;99.90
13686;DHT22;6915;48.296;8.874;2023-04-07T04:45:07;4.60;99.90
13686;DHT22;6915;48.296;8.874;2023-04-07T04:47:37;4.40;99.90
13686;DHT22;6915;48.296;8.874;2023-04-07T04:50:10;4.40;99.90
13686;DHT22;6915;48.296;8.874;2023-04-07T04:52:39;4.40;99.90
13686;DHT22;6915;48.296;8.874;2023-04-07T04:55:09;4.30;99.90
13686;DHT22;6915;48.296;8.874;2023-04-07T04:57:39;4.20;99.90
13686;DHT22;6915;48.296;8.874;2023-04-07T05:00:12;4.20;99.90
13686;DHT22;6915;48.296;8.874;2023-04-07T05:02:41;4.20;99.90
13686;DHT22;6915;48.296;8.874;2023-04-07T05:05:10;4.10;99.90
13686;DHT22;6915;48.296;8.874;2023-04-07T05:07:39;4.10;99.90
13686;DHT22;6915;48.296;8.874;2023-04-07T05:10:07;4.00;99.90
13686;DHT22;6915;48.296;8.874;2023-04-07T05:12:36;3.90;99.90
13686;DHT22;6915;48.296;8.874;2023-04-07T05:15:10;3.90;99.90
13686;DHT22;6915;48.296;8.874;2023-04-07T05:17:41;3.90;99.90
13686;DHT22;6915;48.296;8.874;2023-04-07T05:20:19;3.80;99.90
13686;DHT22;6915;48.296;8.874;2023-04-07T05:22:50;3.90;99.90
13686;DHT22;6915;48.296;8.874;2023-04-07T05:25:19;3.90;99.90
13686;DHT22;6915;48.296;8.874;2023-04-07T05:27:53;3.80;99.90
13686;DHT22;6915;48.296;8.874;2023-04-07T05:30:25;4.10;99.90
13686;DHT22;6915;48.296;8.874;2023-04-07T05:32:53;3.90;99.90
13686;DHT22;6915;48.296;8.874;2023-04-07T05:35:24;4.00;99.90
13686;DHT22;6915;48.296;8.874;2023-04-07T05:37:59;4.00;99.90
13686;DHT22;6915;48.296;8.874;2023-04-07T05:40:28;4.00;99.90
13686;DHT22;6915;48.296;8.874;2023-04-07T05:42:57;4.00;99.90
13686;DHT22;6915;48.296;8.874;2023-04-07T05:45:27;4.00;99.90
13686;DHT22;6915;48.296;8.874;2023-04-07T05:47:56;4.00;99.90
13686;DHT22;6915;48.296;8.874;2023-04-07T05:50:25;4.10;99.90
13686;DHT22;6915;48.296;8.874;2023-04-07T05:52:54;4.40;99.90
13686;DHT22;6915;48.296;8.874;2023-04-07T05:55:23;4.30;99.90
13686;DHT22;6915;48.296;8.874;2023-04-07T05:57:51;4.30;99.90
13686;DHT22;6915;48.296;8.874;2023-04-07T06:00:22;4.40;99.90
13686;DHT22;6915;48.296;8.874;2023-04-07T06:03:03;4.50;99.90
13686;DHT22;6915;48.296;8.874;2023-04-07T06:05:35;4.60;99.90
13686;DHT22;6915;48.296;8.874;2023-04-07T06:08:12;4.70;99.90
13686;DHT22;6915;48.296;8.874;2023-04-07T06:10:47;4.90;99.90
13686;DHT22;6915;48.296;8.874;2023-04-07T06:13:15;4.90;99.90
13686;DHT22;6915;48.296;8.874;2023-04-07T06:20:57;5.60;99.90
13686;DHT22;6915;48.296;8.874;2023-04-07T06:26:03;6.00;99.90
13686;DHT22;6915;48.296;8.874;2023-04-07T06:28:41;6.30;99.90
13686;DHT22;6915;48.296;8.874;2023-04-07T06:31:12;6.40;99.90
13686;DHT22;6915;48.296;8.874;2023-04-07T06:33:41;6.40;99.90
13686;DHT22;6915;48.296;8.874;2023-04-07T06:36:12;6.70;99.90
13686;DHT22;6915;48.296;8.874;2023-04-07T06:38:46;7.00;99.90
13686;DHT22;6915;48.296;8.874;2023-04-07T06:41:15;7.30;99.90
13686;DHT22;6915;48.296;8.874;2023-04-07T06:43:45;7.50;99.90
13686;DHT22;6915;48.296;8.874;2023-04-07T06:46:14;7.60;99.90
13686;DHT22;6915;48.296;8.874;2023-04-07T06:48:51;7.80;99.90
13686;DHT22;6915;48.296;8.874;2023-04-07T06:51:22;7.90;99.90
13686;DHT22;6915;48.296;8.874;2023-04-07T06:53:50;7.80;99.90
13686;DHT22;6915;48.296;8.874;2023-04-07T06:56:19;7.90;99.90
13686;DHT22;6915;48.296;8.874;2023-04-07T06:58:48;8.00;99.90
13686;DHT22;6915;48.296;8.874;2023-04-07T07:01:17;8.40;99.90
13686;DHT22;6915;48.296;8.874;2023-04-07T07:03:45;8.60;99.90
13686;DHT22;6915;48.296;8.874;2023-04-07T07:06:14;9.00;99.90
13686;DHT22;6915;48.296;8.874;2023-04-07T07:08:44;9.20;99.90
13686;DHT22;6915;48.296;8.874;2023-04-07T07:11:13;9.40;99.90
13686;DHT22;6915;48.296;8.874;2023-04-07T07:13:41;9.60;99.90
13686;DHT22;6915;48.296;8.874;2023-04-07T07:31:43;11.00;99.90
13686;DHT22;6915;48.296;8.874;2023-04-07T07:34:11;11.00;99.90
13686;DHT22;6915;48.296;8.874;2023-04-07T07:36:40;11.20;99.90
13686;DHT22;6915;48.296;8.874;2023-04-07T07:39:09;10.90;99.90
13686;DHT22;6915;48.296;8.874;2023-04-07T07:41:37;10.80;99.90
13686;DHT22;6915;48.296;8.874;2023-04-07T07:59:38;10.20;99.90
13686;DHT22;6915;48.296;8.874;2023-04-07T08:02:07;10.20;99.90
13686;DHT22;6915;48.296;8.874;2023-04-07T08:04:37;10.30;99.90
13686;DHT22;6915;48.296;8.874;2023-04-07T08:07:07;10.40;99.90
13686;DHT22;6915;48.296;8.874;2023-04-07T08:14:42;10.70;99.90
13686;DHT22;6915;48.296;8.874;2023-04-07T08:17:26;10.80;99.90
13686;DHT22;6915;48.296;8.874;2023-04-07T08:19:55;10.80;99.90
13686;DHT22;6915;48.296;8.874;2023-04-07T08:22:24;10.80;99.90
13686;DHT22;6915;48.296;8.874;2023-04-07T08:24:53;10.50;99.90
13686;DHT22;6915;48.296;8.874;2023-04-07T08:27:22;10.40;99.90
13686;DHT22;6915;48.296;8.874;2023-04-07T08:30:00;10.60;99.90
13686;DHT22;6915;48.296;8.874;2023-04-07T08:32:36;10.40;99.90
13686;DHT22;6915;48.296;8.874;2023-04-07T08:35:07;10.40;99.90
13686;DHT22;6915;48.296;8.874;2023-04-07T08:37:37;10.60;99.90
13686;DHT22;6915;48.296;8.874;2023-04-07T08:40:10;11.00;99.90
13686;DHT22;6915;48.296;8.874;2023-04-07T08:42:42;11.30;99.90
13686;DHT22;6915;48.296;8.874;2023-04-07T08:45:17;11.10;99.90
13686;DHT22;6915;48.296;8.874;2023-04-07T08:47:47;11.10;99.90
13686;DHT22;6915;48.296;8.874;2023-04-07T08:50:19;10.90;99.90
13686;DHT22;6915;48.296;8.874;2023-04-07T08:58:04;11.50;99.90
13686;DHT22;6915;48.296;8.874;2023-04-07T09:00:35;11.90;99.90
13686;DHT22;6915;48.296;8.874;2023-04-07T09:03:04;11.70;99.90
13686;DHT22;6915;48.296;8.874;2023-04-07T09:05:34;11.90;99.90
13686;DHT22;6915;48.296;8.874;2023-04-07T09:08:03;12.40;99.90
13686;DHT22;6915;48.296;8.874;2023-04-07T09:10:33;12.40;99.90
13686;DHT22;6915;48.296;8.874;2023-04-07T09:13:02;12.10;99.90
13686;DHT22;6915;48.296;8.874;2023-04-07T09:15:31;12.10;99.90
13686;DHT22;6915;48.296;8.874;2023-04-07T09:18:02;12.20;99.90
13686;DHT22;6915;48.296;8.874;2023-04-07T09:20:53;12.30;99.90
13686;DHT22;6915;48.296;8.874;2023-04-07T09:23:31;12.20;99.90
13686;DHT22;6915;48.296;8.874;2023-04-07T09:26:17;12.10;99.90
13686;DHT22;6915;48.296;8.874;2023-04-07T09:28:47;11.90;99.90
13686;DHT22;6915;48.296;8.874;2023-04-07T09:31:18;11.90;99.90
13686;DHT22;6915;48.296;8.874;2023-04-07T09:33:47;12.00;99.90
13686;DHT22;6915;48.296;8.874;2023-04-07T09:36:16;11.90;99.90
13686;DHT22;6915;48.296;8.874;2023-04-07T09:38:46;11.90;99.90
13686;DHT22;6915;48.296;8.874;2023-04-07T09:41:15;11.80;99.90
13686;DHT22;6915;48.296;8.874;2023-04-07T09:43:45;11.50;99.90
13686;DHT22;6915;48.296;8.874;2023-04-07T09:46:15;11.40;99.90
13686;DHT22;6915;48.296;8.874;2023-04-07T09:48:46;11.50;99.90
13686;DHT22;6915;48.296;8.874;2023-04-07T09:51:16;11.70;99.90
13686;DHT22;6915;48.296;8.874;2023-04-07T09:53:47;11.80;99.90
13686;DHT22;6915;48.296;8.874;2023-04-07T09:56:18;12.50;99.90
13686;DHT22;6915;48.296;8.874;2023-04-07T09:58:49;12.90;99.90
13686;DHT22;6915;48.296;8.874;2023-04-07T10:01:20;13.30;99.90
13686;DHT22;6915;48.296;8.874;2023-04-07T10:03:49;13.60;99.90
13686;DHT22;6915;48.296;8.874;2023-04-07T10:06:20;13.60;99.90
13686;DHT22;6915;48.296;8.874;2023-04-07T10:08:49;13.30;99.90
13686;DHT22;6915;48.296;8.874;2023-04-07T10:11:18;12.80;99.90
13686;DHT22;6915;48.296;8.874;2023-04-07T10:13:47;13.00;99.90
13686;DHT22;6915;48.296;8.874;2023-04-07T10:16:18;12.60;99.90
13686;DHT22;6915;48.296;8.874;2023-04-07T10:18:47;12.60;99.90
13686;DHT22;6915;48.296;8.874;2023-04-07T10:21:17;12.40;99.90
13686;DHT22;6915;48.296;8.874;2023-04-07T10:23:57;12.60;99.90
13686;DHT22;6915;48.296;8.874;2023-04-07T10:26:30;13.20;99.90
13686;DHT22;6915;48.296;8.874;2023-04-07T10:29:01;13.50;99.90
13686;DHT22;6915;48.296;8.874;2023-04-07T10:31:31;13.70;99.90
13686;DHT22;6915;48.296;8.874;2023-04-07T10:34:01;14.00;99.90
13686;DHT22;6915;48.296;8.874;2023-04-07T10:36:30;14.10;99.90
13686;DHT22;6915;48.296;8.874;2023-04-07T10:39:22;13.90;99.90
13686;DHT22;6915;48.296;8.874;2023-04-07T10:41:51;13.50;99.90
13686;DHT22;6915;48.296;8.874;2023-04-07T10:44:48;13.30;99.90
13686;DHT22;6915;48.296;8.874;2023-04-07T10:47:18;12.90;99.90
13686;DHT22;6915;48.296;8.874;2023-04-07T10:50:17;12.30;99.90
13686;DHT22;6915;48.296;8.874;2023-04-07T10:52:47;11.90;99.90
13686;DHT22;6915;48.296;8.874;2023-04-07T10:55:40;11.80;99.90
13686;DHT22;6915;48.296;8.874;2023-04-07T10:58:18;11.70;99.90
13686;DHT22;6915;48.296;8.874;2023-04-07T11:01:17;11.50;99.90
13686;DHT22;6915;48.296;8.874;2023-04-07T11:04:08;11.90;99.90
13686;DHT22;6915;48.296;8.874;2023-04-07T11:06:47;12.50;99.90
13686;DHT22;6915;48.296;8.874;2023-04-07T11:09:20;12.90;99.90
13686;DHT22;6915;48.296;8.874;2023-04-07T11:11:50;12.80;99.90
13686;DHT22;6915;48.296;8.874;2023-04-07T11:14:26;12.50;99.90
13686;DHT22;6915;48.296;8.874;2023-04-07T11:16:56;12.30;99.90
13686;DHT22;6915;48.296;8.874;2023-04-07T11:19:25;11.80;99.90
13686;DHT22;6915;48.296;8.874;2023-04-07T11:22:12;11.50;99.90
13686;DHT22;6915;48.296;8.874;2023-04-07T11:24:41;11.40;99.90
13686;DHT22;6915;48.296;8.874;2023-04-07T11:27:14;11.40;99.90
13686;DHT22;6915;48.296;8.874;2023-04-07T11:29:43;11.30;99.90
13686;DHT22;6915;48.296;8.874;2023-04-07T11:32:13;11.20;99.90
13686;DHT22;6915;48.296;8.874;2023-04-07T11:34:43;11.30;99.90
13686;DHT22;6915;48.296;8.874;2023-04-07T11:37:23;11.30;99.90
13686;DHT22;6915;48.296;8.874;2023-04-07T11:39:51;11.30;99.90
13686;DHT22;6915;48.296;8.874;2023-04-07T11:42:33;11.20;99.90
13686;DHT22;6915;48.296;8.874;2023-04-07T11:45:02;11.10;99.90
13686;DHT22;6915;48.296;8.874;2023-04-07T11:47:36;11.20;99.90
13686;DHT22;6915;48.296;8.874;2023-04-07T11:50:07;11.50;99.90
13686;DHT22;6915;48.296;8.874;2023-04-07T11:52:40;11.50;99.90
13686;DHT22;6915;48.296;8.874;2023-04-07T11:55:20;11.50;99.90
13686;DHT22;6915;48.296;8.874;2023-04-07T11:57:52;11.60;99.90
13686;DHT22;6915;48.296;8.874;2023-04-07T12:00:22;11.70;99.90
13686;DHT22;6915;48.296;8.874;2023-04-07T12:02:51;11.50;99.90
13686;DHT22;6915;48.296;8.874;2023-04-07T12:05:20;11.40;99.90
13686;DHT22;6915;48.296;8.874;2023-04-07T12:07:54;11.30;99.90
13686;DHT22;6915;48.296;8.874;2023-04-07T12:10:25;11.40;99.90
13686;DHT22;6915;48.296;8.874;2023-04-07T12:12:55;11.40;99.90
13686;DHT22;6915;48.296;8.874;2023-04-07T12:15:24;11.40;99.90
13686;DHT22;6915;48.296;8.874;2023-04-07T12:17:53;11.30;99.90
13686;DHT22;6915;48.296;8.874;2023-04-07T12:20:22;11.40;99.90
13686;DHT22;6915;48.296;8.874;2023-04-07T12:22:51;11.50;99.90
13686;DHT22;6915;48.296;8.874;2023-04-07T12:25:20;11.50;99.90
13686;DHT22;6915;48.296;8.874;2023-04-07T12:27:48;11.20;99.90
13686;DHT22;6915;48.296;8.874;2023-04-07T12:30:19;11.00;99.90
13686;DHT22;6915;48.296;8.874;2023-04-07T12:32:48;11.00;99.90
13686;DHT22;6915;48.296;8.874;2023-04-07T12:35:19;10.90;99.90
13686;DHT22;6915;48.296;8.874;2023-04-07T12:37:48;11.00;99.90
13686;DHT22;6915;48.296;8.874;2023-04-07T12:40:23;10.70;99.90
13686;DHT22;6915;48.296;8.874;2023-04-07T12:42:56;10.40;99.90
13686;DHT22;6915;48.296;8.874;2023-04-07T12:45:27;10.30;99.90
13686;DHT22;6915;48.296;8.874;2023-04-07T12:47:57;10.30;99.90
13686;DHT22;6915;48.296;8.874;2023-04-07T12:50:26;10.30;99.90
13686;DHT22;6915;48.296;8.874;2023-04-07T12:52:58;10.50;99.90
13686;DHT22;6915;48.296;8.874;2023-04-07T12:55:30;10.50;99.90
13686;DHT22;6915;48.296;8.874;2023-04-07T12:58:00;10.40;99.90
13686;DHT22;6915;48.296;8.874;2023-04-07T13:00:31;10.30;99.90
13686;DHT22;6915;48.296;8.874;2023-04-07T13:03:00;10.10;99.90
13686;DHT22;6915;48.296;8.874;2023-04-07T13:05:29;10.10;99.90
13686;DHT22;6915;48.296;8.874;2023-04-07T13:07:58;10.00;99.90
13686;DHT22;6915;48.296;8.874;2023-04-07T13:10:27;10.00;99.90
13686;DHT22;6915;48.296;8.874;2023-04-07T13:12:55;10.10;99.90
13686;DHT22;6915;48.296;8.874;2023-04-07T13:15:25;10.20;99.90
13686;DHT22;6915;48.296;8.874;2023-04-07T13:17:56;10.40;99.90
13686;DHT22;6915;48.296;8.874;2023-04-07T13:20:25;10.60;99.90
13686;DHT22;6915;48.296;8.874;2023-04-07T13:22:56;10.80;99.90
13686;DHT22;6915;48.296;8.874;2023-04-07T13:25:26;11.00;99.90
13686;DHT22;6915;48.296;8.874;2023-04-07T13:27:54;11.00;99.90
13686;DHT22;6915;48.296;8.874;2023-04-07T13:30:23;11.10;99.90
13686;DHT22;6915;48.296;8.874;2023-04-07T13:32:52;11.10;99.90
13686;DHT22;6915;48.296;8.874;2023-04-07T13:35:22;11.10;99.90
13686;DHT22;6915;48.296;8.874;2023-04-07T13:37:51;11.20;99.90
13686;DHT22;6915;48.296;8.874;2023-04-07T13:40:20;11.20;99.90
13686;DHT22;6915;48.296;8.874;2023-04-07T13:42:48;11.20;99.90
13686;DHT22;6915;48.296;8.874;2023-04-07T13:45:17;10.80;99.90
13686;DHT22;6915;48.296;8.874;2023-04-07T13:47:46;10.50;99.90
13686;DHT22;6915;48.296;8.874;2023-04-07T13:50:14;10.30;99.90
13686;DHT22;6915;48.296;8.874;2023-04-07T13:52:44;9.90;99.90
13686;DHT22;6915;48.296;8.874;2023-04-07T13:55:13;9.50;99.90
13686;DHT22;6915;48.296;8.874;2023-04-07T13:57:43;9.20;99.90
13686;DHT22;6915;48.296;8.874;2023-04-07T14:00:13;9.30;99.90
13686;DHT22;6915;48.296;8.874;2023-04-07T14:02:41;9.10;99.90
13686;DHT22;6915;48.296;8.874;2023-04-07T14:05:11;9.00;99.90
13686;DHT22;6915;48.296;8.874;2023-04-07T14:07:40;8.90;99.90
13686;DHT22;6915;48.296;8.874;2023-04-07T14:10:10;9.10;99.90
13686;DHT22;6915;48.296;8.874;2023-04-07T14:12:39;8.80;99.90
13686;DHT22;6915;48.296;8.874;2023-04-07T14:15:09;8.60;99.90
13686;DHT22;6915;48.296;8.874;2023-04-07T14:17:38;8.50;99.90
13686;DHT22;6915;48.296;8.874;2023-04-07T14:20:08;8.40;99.90
13686;DHT22;6915;48.296;8.874;2023-04-07T14:22:37;8.30;99.90
13686;DHT22;6915;48.296;8.874;2023-04-07T14:25:07;8.30;99.90
13686;DHT22;6915;48.296;8.874;2023-04-07T14:27:37;8.20;99.90
13686;DHT22;6915;48.296;8.874;2023-04-07T14:30:07;8.20;99.90
13686;DHT22;6915;48.296;8.874;2023-04-07T14:32:36;8.20;99.90
13686;DHT22;6915;48.296;8.874;2023-04-07T14:35:06;8.20;99.90
13686;DHT22;6915;48.296;8.874;2023-04-07T14:37:35;8.10;99.90
13686;DHT22;6915;48.296;8.874;2023-04-07T14:40:04;8.10;99.90
13686;DHT22;6915;48.296;8.874;2023-04-07T14:42:33;8.00;99.90
13686;DHT22;6915;48.296;8.874;2023-04-07T14:45:05;8.00;99.90
13686;DHT22;6915;48.296;8.874;2023-04-07T14:47:35;8.00;99.90
13686;DHT22;6915;48.296;8.874;2023-04-07T14:50:05;8.00;99.90
13686;DHT22;6915;48.296;8.874;2023-04-07T14:52:34;7.80;99.90
13686;DHT22;6915;48.296;8.874;2023-04-07T14:55:03;7.60;99.90
13686;DHT22;6915;48.296;8.874;2023-04-07T14:57:31;7.50;99.90
13686;DHT22;6915;48.296;8.874;2023-04-07T15:00:01;7.70;99.90
13686;DHT22;6915;48.296;8.874;2023-04-07T15:02:31;7.60;99.90
13686;DHT22;6915;48.296;8.874;2023-04-07T15:05:00;7.60;99.90
13686;DHT22;6915;48.296;8.874;2023-04-07T15:07:29;7.70;99.90
13686;DHT22;6915;48.296;8.874;2023-04-07T15:10:00;7.70;99.90
13686;DHT22;6915;48.296;8.874;2023-04-07T15:12:28;7.70;99.90
13686;DHT22;6915;48.296;8.874;2023-04-07T15:14:57;7.80;99.90
13686;DHT22;6915;48.296;8.874;2023-04-07T15:17:26;8.10;99.90
13686;DHT22;6915;48.296;8.874;2023-04-07T15:19:56;8.00;99.90
13686;DHT22;6915;48.296;8.874;2023-04-07T15:22:25;8.00;99.90
13686;DHT22;6915;48.296;8.874;2023-04-07T15:24:53;8.00;99.90
13686;DHT22;6915;48.296;8.874;2023-04-07T15:27:22;7.90;99.90
13686;DHT22;6915;48.296;8.874;2023-04-07T15:29:51;8.00;99.90
13686;DHT22;6915;48.296;8.874;2023-04-07T15:32:24;7.90;99.90
13686;DHT22;6915;48.296;8.874;2023-04-07T15:34:53;7.90;99.90
13686;DHT22;6915;48.296;8.874;2023-04-07T15:37:24;7.80;99.90
13686;DHT22;6915;48.296;8.874;2023-04-07T15:39:52;7.70;99.90
13686;DHT22;6915;48.296;8.874;2023-04-07T15:42:21;7.70;99.90
13686;DHT22;6915;48.296;8.874;2023-04-07T15:44:50;7.70;99.90
13686;DHT22;6915;48.296;8.874;2023-04-07T15:47:19;7.80;99.90
13686;DHT22;6915;48.296;8.874;2023-04-07T15:49:47;8.00;99.90
13686;DHT22;6915;48.296;8.874;2023-04-07T15:52:16;8.10;99.90
13686;DHT22;6915;48.296;8.874;2023-04-07T15:54:46;8.10;99.90
13686;DHT22;6915;48.296;8.874;2023-04-07T15:57:14;8.20;99.90
13686;DHT22;6915;48.296;8.874;2023-04-07T15:59:44;8.10;99.90
13686;DHT22;6915;48.296;8.874;2023-04-07T16:02:13;8.30;99.90
13686;DHT22;6915;48.296;8.874;2023-04-07T16:04:44;8.30;99.90
13686;DHT22;6915;48.296;8.874;2023-04-07T16:07:21;8.30;99.90
13686;DHT22;6915;48.296;8.874;2023-04-07T16:09:51;8.30;99.90
13686;DHT22;6915;48.296;8.874;2023-04-07T16:12:19;8.20;99.90
13686;DHT22;6915;48.296;8.874;2023-04-07T16:14:48;8.00;99.90
13686;DHT22;6915;48.296;8.874;2023-04-07T16:17:17;7.80;99.90
13686;DHT22;6915;48.296;8.874;2023-04-07T16:19:46;7.70;99.90
13686;DHT22;6915;48.296;8.874;2023-04-07T16:22:16;7.60;99.90
13686;DHT22;6915;48.296;8.874;2023-04-07T16:24:48;7.50;99.90
13686;DHT22;6915;48.296;8.874;2023-04-07T16:27:18;7.40;99.90
13686;DHT22;6915;48.296;8.874;2023-04-07T16:29:46;7.40;99.90
13686;DHT22;6915;48.296;8.874;2023-04-07T16:32:15;7.40;99.90
13686;DHT22;6915;48.296;8.874;2023-04-07T16:34:43;7.20;99.90
13686;DHT22;6915;48.296;8.874;2023-04-07T16:37:12;7.30;99.90
13686;DHT22;6915;48.296;8.874;2023-04-07T16:39:41;7.30;99.90
13686;DHT22;6915;48.296;8.874;2023-04-07T16:42:09;7.30;99.90
13686;DHT22;6915;48.296;8.874;2023-04-07T16:44:39;7.30;99.90
13686;DHT22;6915;48.296;8.874;2023-04-07T16:54:55;7.40;99.90
13686;DHT22;6915;48.296;8.874;2023-04-07T16:57:25;7.40;99.90
13686;DHT22;6915;48.296;8.874;2023-04-07T16:59:55;7.40;99.90
13686;DHT22;6915;48.296;8.874;2023-04-07T17:02:24;7.50;99.90
13686;DHT22;6915;48.296;8.874;2023-04-07T17:04:54;7.30;99.90
13686;DHT22;6915;48.296;8.874;2023-04-07T17:07:23;7.30;99.90
13686;DHT22;6915;48.296;8.874;2023-04-07T17:09:52;7.20;99.90
13686;DHT22;6915;48.296;8.874;2023-04-07T17:12:21;7.20;99.90
13686;DHT22;6915;48.296;8.874;2023-04-07T17:14:49;7.20;99.90
13686;DHT22;6915;48.296;8.874;2023-04-07T17:17:23;7.20;99.90
13686;DHT22;6915;48.296;8.874;2023-04-07T17:19:52;7.10;99.90
13686;DHT22;6915;48.296;8.874;2023-04-07T17:22:21;7.10;99.90
13686;DHT22;6915;48.296;8.874;2023-04-07T17:24:50;7.10;99.90
13686;DHT22;6915;48.296;8.874;2023-04-07T17:27:19;7.10;99.90
13686;DHT22;6915;48.296;8.874;2023-04-07T17:29:47;7.00;99.90